Jesup, Iowa
Current Conditions -  °F | °C
As of 5:35 AM on Thursday 27 Nov 2014 (Local Time) from KIIB Reporting Station
Scattered Clouds Scattered Clouds  
Wind Chill:   Ceiling: Unl
Heat Index: 14°   Visibility: 10mi
Dew Point: 10°   Wind: 12mph
Humidity: 86%   Direction: 310°NW
Pressure: 30.39"   Gusts: NA
Location:  42.48°N, 92.06°W
Report Text: KIIB 271135Z AUTO 31010KT 10SM SCT014 SCT030 M10/M12 A3039 RMK AO2
Loading
Personal Weather Stations






























Interactive Weather Map New forecast layout! Learn more

10-Day Weather Forecast

Advertisements
Track Severe Weather on mobile